Time,TemperatureF,DewpointF,PressureIn,WindDirection,WindDirectionDegrees,WindSpeedMPH,WindSpeedGustMPH,Humidity,HourlyPrecipIn,Conditions,Clouds,dailyrainin,SoftwareType,DateUTC
2013-02-13 00:11:00,26.2,21.0,28.17,ENE,65,0.0,0.0,81,0.00,,,0.00,weatherlink.com 1.10,2013-02-13 05:11:00,
2013-02-13 00:27:00,25.2,21.0,28.16,ENE,65,0.0,0.0,84,0.00,,,0.00,weatherlink.com 1.10,2013-02-13 05:27:00,
2013-02-13 00:42:00,26.7,22.0,28.14,ENE,63,0.0,1.0,81,0.00,,,0.00,weatherlink.com 1.10,2013-02-13 05:42:00,
2013-02-13 00:57:00,26.7,21.0,28.14,ENE,65,0.0,1.0,80,0.00,,,0.00,weatherlink.com 1.10,2013-02-13 05:57:00,
2013-02-13 01:12:00,25.7,21.0,28.14,ENE,65,0.0,0.0,82,0.00,,,0.00,weatherlink.com 1.10,2013-02-13 06:12:00,
2013-02-13 01:27:00,25.3,21.0,28.13,ENE,65,0.0,1.0,85,0.00,,,0.00,weatherlink.com 1.10,2013-02-13 06:27:00,
2013-02-13 01:42:00,24.9,21.0,28.13,ENE,65,0.0,0.0,84,0.00,,,0.00,weatherlink.com 1.10,2013-02-13 06:42:00,
2013-02-13 01:57:00,24.0,20.0,28.12,ENE,65,0.0,0.0,85,0.00,,,0.00,weatherlink.com 1.10,2013-02-13 06:57:00,
2013-02-13 02:12:00,24.0,21.0,28.11,ENE,65,0.0,0.0,87,0.00,,,0.00,weatherlink.com 1.10,2013-02-13 07:12:00,
2013-02-13 02:27:00,25.4,22.0,28.11,ENE,65,0.0,0.0,85,0.00,,,0.00,weatherlink.com 1.10,2013-02-13 07:27:00,
2013-02-13 02:42:00,25.5,22.0,28.11,ENE,65,0.0,0.0,87,0.00,,,0.00,weatherlink.com 1.10,2013-02-13 07:42:00,
2013-02-13 02:57:00,26.3,23.0,28.10,ENE,65,0.0,1.0,87,0.00,,,0.00,weatherlink.com 1.10,2013-02-13 07:57:00,
2013-02-13 03:13:00,26.9,23.0,28.09,ENE,65,0.0,0.0,84,0.00,,,0.00,weatherlink.com 1.10,2013-02-13 08:13:00,
2013-02-13 03:27:00,26.7,23.0,28.09,ENE,65,0.0,0.0,86,0.00,,,0.00,weatherlink.com 1.10,2013-02-13 08:27:00,
2013-02-13 03:42:00,26.6,23.0,28.09,ENE,65,0.0,0.0,86,0.00,,,0.00,weatherlink.com 1.10,2013-02-13 08:42:00,
2013-02-13 03:57:00,26.6,23.0,28.08,ENE,65,0.0,0.0,85,0.00,,,0.00,weatherlink.com 1.10,2013-02-13 08:57:00,
2013-02-13 04:12:00,26.6,23.0,28.08,ENE,65,0.0,0.0,85,0.00,,,0.00,weatherlink.com 1.10,2013-02-13 09:12:00,
2013-02-13 04:27:00,26.6,23.0,28.07,ENE,65,0.0,0.0,85,0.00,,,0.00,weatherlink.com 1.10,2013-02-13 09:27:00,
2013-02-13 04:42:00,27.1,23.0,28.07,ENE,65,0.0,0.0,85,0.00,,,0.00,weatherlink.com 1.10,2013-02-13 09:42:00,
2013-02-13 04:57:00,27.3,23.0,28.07,ENE,65,0.0,0.0,84,0.00,,,0.00,weatherlink.com 1.10,2013-02-13 09:57:00,
2013-02-13 05:12:00,27.5,24.0,28.07,ENE,65,0.0,0.0,85,0.00,,,0.00,weatherlink.com 1.10,2013-02-13 10:12:00,
2013-02-13 05:27:00,28.0,24.0,28.07,ENE,65,0.0,0.0,86,0.00,,,0.00,weatherlink.com 1.10,2013-02-13 10:27:00,
2013-02-13 05:42:00,28.3,24.0,28.06,ENE,65,0.0,0.0,84,0.00,,,0.00,weatherlink.com 1.10,2013-02-13 10:42:00,
2013-02-13 05:57:00,28.7,25.0,28.05,ENE,65,0.0,0.0,85,0.00,,,0.00,weatherlink.com 1.10,2013-02-13 10:57:00,
2013-02-13 06:12:00,28.1,24.0,28.04,ENE,65,0.0,0.0,85,0.00,,,0.00,weatherlink.com 1.10,2013-02-13 11:12:00,
2013-02-13 06:27:00,27.3,23.0,28.04,ENE,65,0.0,0.0,84,0.00,,,0.00,weatherlink.com 1.10,2013-02-13 11:27:00,
2013-02-13 06:42:00,26.2,22.0,28.03,ENE,65,0.0,0.0,85,0.00,,,0.00,weatherlink.com 1.10,2013-02-13 11:42:00,
2013-02-13 06:57:00,25.3,22.0,28.05,ENE,65,0.0,0.0,87,0.00,,,0.00,weatherlink.com 1.10,2013-02-13 11:57:00,
2013-02-13 07:12:00,24.5,22.0,28.05,ENE,65,0.0,0.0,88,0.00,,,0.00,weatherlink.com 1.10,2013-02-13 12:12:00,
2013-02-13 07:27:00,25.7,23.0,28.05,ENE,72,0.0,1.0,89,0.00,,,0.00,weatherlink.com 1.10,2013-02-13 12:27:00,
2013-02-13 07:42:00,27.1,23.0,28.05,ENE,64,1.0,3.0,85,0.00,,,0.00,weatherlink.com 1.10,2013-02-13 12:42:00,
2013-02-13 07:57:00,27.1,23.0,28.05,ENE,68,0.0,1.0,85,0.00,,,0.00,weatherlink.com 1.10,2013-02-13 12:57:00,
2013-02-13 08:12:00,26.9,23.0,28.04,ENE,68,0.0,0.0,86,0.00,,,0.00,weatherlink.com 1.10,2013-02-13 13:12:00,
2013-02-13 08:27:00,27.5,24.0,28.04,SSW,203,0.0,2.0,87,0.00,,,0.00,weatherlink.com 1.10,2013-02-13 13:27:00,
2013-02-13 08:42:00,27.8,24.0,28.03,SSW,203,0.0,0.0,86,0.00,,,0.00,weatherlink.com 1.10,2013-02-13 13:42:00,
2013-02-13 08:57:00,28.8,25.0,28.03,SSW,203,1.0,1.0,85,0.00,,,0.00,weatherlink.com 1.10,2013-02-13 13:57:00,
2013-02-13 09:12:00,30.3,26.0,28.03,SSW,200,0.0,1.0,83,0.00,,,0.00,weatherlink.com 1.10,2013-02-13 14:12:00,
2013-02-13 09:27:00,31.6,25.0,28.01,ENE,72,0.0,1.0,77,0.00,,,0.00,weatherlink.com 1.10,2013-02-13 14:27:00,
2013-02-13 09:42:00,32.7,25.0,28.02,SW,219,0.0,3.0,74,0.00,,,0.00,weatherlink.com 1.10,2013-02-13 14:42:00,
2013-02-13 09:57:00,33.1,26.0,28.01,SW,217,0.0,1.0,76,0.00,,,0.00,weatherlink.com 1.10,2013-02-13 14:57:00,
2013-02-13 10:13:00,34.1,26.0,28.00,SW,217,0.0,1.0,73,0.00,,,0.00,weatherlink.com 1.10,2013-02-13 15:13:00,
2013-02-13 10:28:00,35.4,26.0,27.99,SSW,212,0.0,1.0,68,0.00,,,0.00,weatherlink.com 1.10,2013-02-13 15:28:00,
2013-02-13 10:43:00,36.3,26.0,27.98,SSW,210,0.0,0.0,67,0.00,,,0.00,weatherlink.com 1.10,2013-02-13 15:43:00,
2013-02-13 10:58:00,37.6,28.0,27.97,SSW,210,0.0,0.0,68,0.00,,,0.00,weatherlink.com 1.10,2013-02-13 15:58:00,
2013-02-13 11:13:00,37.5,25.0,27.97,SSW,210,0.0,1.0,60,0.00,,,0.00,weatherlink.com 1.10,2013-02-13 16:13:00,
2013-02-13 11:28:00,37.8,24.0,27.96,ENE,73,0.0,1.0,58,0.00,,,0.00,weatherlink.com 1.10,2013-02-13 16:28:00,
2013-02-13 11:43:00,38.6,25.0,27.97,SE,134,0.0,1.0,58,0.00,,,0.00,weatherlink.com 1.10,2013-02-13 16:43:00,
2013-02-13 11:58:00,39.2,26.0,27.96,East,98,1.0,1.0,60,0.00,,,0.00,weatherlink.com 1.10,2013-02-13 16:58:00,
2013-02-13 12:13:00,39.5,24.0,27.95,East,84,0.0,1.0,55,0.00,,,0.00,weatherlink.com 1.10,2013-02-13 17:13:00,
2013-02-13 12:28:00,40.6,25.0,27.94,SSE,166,0.0,1.0,55,0.00,,,0.00,weatherlink.com 1.10,2013-02-13 17:28:00,
2013-02-13 12:43:00,41.2,27.0,27.93,West,271,1.0,4.0,57,0.00,,,0.00,weatherlink.com 1.10,2013-02-13 17:43:00,
2013-02-13 12:58:00,41.1,28.0,27.92,NW,320,1.0,7.0,60,0.00,,,0.00,weatherlink.com 1.10,2013-02-13 17:58:00,
2013-02-13 13:13:00,40.9,28.0,27.91,SSE,153,0.0,4.0,61,0.00,,,0.00,weatherlink.com 1.10,2013-02-13 18:13:00,
2013-02-13 13:28:00,40.9,29.0,27.91,SSW,200,0.0,2.0,62,0.00,,,0.00,weatherlink.com 1.10,2013-02-13 18:28:00,
2013-02-13 13:43:00,39.9,30.0,27.91,ENE,68,5.0,5.0,68,0.00,,,0.00,weatherlink.com 1.10,2013-02-13 18:43:00,
2013-02-13 13:58:00,38.6,32.0,27.91,SSW,213,2.0,3.0,76,0.00,,,0.00,weatherlink.com 1.10,2013-02-13 18:58:00,
2013-02-13 14:13:00,37.8,32.0,27.89,SSW,212,0.0,1.0,80,0.01,,,0.01,weatherlink.com 1.10,2013-02-13 19:13:00,
2013-02-13 14:28:00,36.5,32.0,27.89,SSW,212,0.0,1.0,84,0.02,,,0.02,weatherlink.com 1.10,2013-02-13 19:28:00,
2013-02-13 14:43:00,36.1,33.0,27.89,SSW,211,0.0,1.0,87,0.03,,,0.03,weatherlink.com 1.10,2013-02-13 19:43:00,
2013-02-13 14:58:00,35.5,32.0,27.88,SSW,211,0.0,0.0,88,0.03,,,0.03,weatherlink.com 1.10,2013-02-13 19:58:00,
2013-02-13 15:13:00,35.1,32.0,27.88,SSW,211,0.0,0.0,89,0.02,,,0.03,weatherlink.com 1.10,2013-02-13 20:13:00,
2013-02-13 15:28:00,35.1,33.0,27.87,SSW,210,0.0,1.0,90,0.03,,,0.05,weatherlink.com 1.10,2013-02-13 20:28:00,
2013-02-13 15:43:00,35.2,33.0,27.86,SSW,210,0.0,1.0,92,0.02,,,0.05,weatherlink.com 1.10,2013-02-13 20:43:00,
2013-02-13 15:58:00,35.4,33.0,27.86,ENE,70,1.0,2.0,92,0.03,,,0.06,weatherlink.com 1.10,2013-02-13 20:58:00,
2013-02-13 16:13:00,35.2,33.0,27.86,ENE,68,1.0,2.0,92,0.03,,,0.06,weatherlink.com 1.10,2013-02-13 21:13:00,
2013-02-13 16:43:00,34.6,33.0,27.86,NNE,15,0.0,5.0,92,0.01,,,0.06,weatherlink.com 1.10,2013-02-13 21:43:00,
2013-02-13 16:58:00,33.9,32.0,27.87,ENE,77,0.0,3.0,92,0.00,,,0.06,weatherlink.com 1.10,2013-02-13 21:58:00,
2013-02-13 17:13:00,33.0,31.0,27.87,ENE,68,0.0,2.0,93,0.00,,,0.06,weatherlink.com 1.10,2013-02-13 22:13:00,
2013-02-13 17:29:00,32.7,31.0,27.88,ENE,68,0.0,1.0,94,0.00,,,0.06,weatherlink.com 1.10,2013-02-13 22:29:00,
2013-02-13 17:44:00,32.6,31.0,27.89,ENE,68,0.0,0.0,94,0.00,,,0.06,weatherlink.com 1.10,2013-02-13 22:44:00,
2013-02-13 17:59:00,32.5,31.0,27.89,ENE,68,0.0,0.0,94,0.00,,,0.06,weatherlink.com 1.10,2013-02-13 22:59:00,
2013-02-13 18:14:00,32.3,31.0,27.89,ENE,68,0.0,0.0,95,0.00,,,0.06,weatherlink.com 1.10,2013-02-13 23:14:00,
2013-02-13 18:29:00,32.3,31.0,27.90,ENE,68,0.0,0.0,95,0.00,,,0.06,weatherlink.com 1.10,2013-02-13 23:29:00,
2013-02-13 18:44:00,32.3,31.0,27.91,ENE,68,0.0,0.0,95,0.00,,,0.06,weatherlink.com 1.10,2013-02-13 23:44:00,
2013-02-13 18:59:00,32.3,31.0,27.91,ENE,68,0.0,0.0,95,0.00,,,0.06,weatherlink.com 1.10,2013-02-13 23:59:00,
2013-02-13 19:14:00,32.3,31.0,27.92,ENE,68,0.0,0.0,95,0.00,,,0.06,weatherlink.com 1.10,2013-02-14 00:14:00,
2013-02-13 19:29:00,32.2,31.0,27.93,ENE,68,0.0,0.0,95,0.00,,,0.06,weatherlink.com 1.10,2013-02-14 00:29:00,
2013-02-13 19:44:00,32.2,31.0,27.94,ENE,68,0.0,0.0,96,0.00,,,0.06,weatherlink.com 1.10,2013-02-14 00:44:00,
2013-02-13 19:59:00,32.2,31.0,27.94,ENE,68,0.0,0.0,96,0.00,,,0.06,weatherlink.com 1.10,2013-02-14 00:59:00,
2013-02-13 20:14:00,32.2,31.0,27.95,ENE,68,0.0,0.0,96,0.00,,,0.06,weatherlink.com 1.10,2013-02-14 01:14:00,
2013-02-13 20:29:00,32.0,31.0,27.96,ENE,68,0.0,0.0,96,0.00,,,0.00,weatherlink.com 1.10,2013-02-14 01:29:00,
2013-02-13 20:44:00,31.7,31.0,27.96,ENE,68,0.0,0.0,96,0.00,,,0.00,weatherlink.com 1.10,2013-02-14 01:44:00,
2013-02-13 20:59:00,31.6,31.0,27.96,ENE,68,0.0,0.0,96,0.00,,,0.00,weatherlink.com 1.10,2013-02-14 01:59:00,
2013-02-13 21:14:00,31.1,30.0,27.97,ENE,68,0.0,0.0,96,0.00,,,0.00,weatherlink.com 1.10,2013-02-14 02:14:00,
2013-02-13 21:29:00,31.0,30.0,27.98,ENE,68,0.0,0.0,96,0.00,,,0.00,weatherlink.com 1.10,2013-02-14 02:29:00,
2013-02-13 21:44:00,31.0,30.0,27.98,ENE,68,0.0,0.0,96,0.00,,,0.00,weatherlink.com 1.10,2013-02-14 02:44:00,
2013-02-13 21:59:00,30.8,30.0,27.98,NNE,30,0.0,1.0,96,0.00,,,0.00,weatherlink.com 1.10,2013-02-14 02:59:00,
2013-02-13 22:14:00,30.8,30.0,27.98,ENE,57,0.0,1.0,96,0.00,,,0.00,weatherlink.com 1.10,2013-02-14 03:14:00,
2013-02-13 22:29:00,31.2,31.0,27.99,NE,51,0.0,5.0,97,0.00,,,0.00,weatherlink.com 1.10,2013-02-14 03:29:00,
2013-02-13 22:44:00,31.6,31.0,28.00,SSW,210,0.0,0.0,96,0.00,,,0.00,weatherlink.com 1.10,2013-02-14 03:44:00,
2013-02-13 22:59:00,32.0,31.0,28.00,WNW,290,0.0,3.0,96,0.00,,,0.00,weatherlink.com 1.10,2013-02-14 03:59:00,
2013-02-13 23:14:00,32.3,31.0,28.00,NE,47,0.0,1.0,95,0.00,,,0.00,weatherlink.com 1.10,2013-02-14 04:14:00,
2013-02-13 23:44:00,32.0,31.0,28.02,SSW,207,0.0,1.0,95,0.00,,,0.00,weatherlink.com 1.10,2013-02-14 04:44:00,
2013-02-13 23:59:00,31.9,31.0,28.02,SSW,206,0.0,1.0,95,0.00,,,0.00,weatherlink.com 1.10,2013-02-14 04:59:00,